KCOD/COD METAR and TAF weather

Enter ICAO airport designator
Station Type Date Time Source
KCOD METAR 2020/02/24 22:56 UTC NOAA

KCOD 242256Z AUTO 04008KT 10SM OVC075 00/M10 A3003 RMK AO2 SLP204 T00001100 FZRANO


Station Type Date Time Source
KCOD Decoded METAR 2020/02/24 22:56 UTC NOAA

Cody, WY, United States (KCOD) 44-31N 109-01W 1553M
Feb 24, 2020 - 05:56 PM EST / 2020.02.24 2256 UTC
Wind: from the NE (040 degrees) at 9 MPH (8 KT):0
Visibility: 10 mile(s):0
Sky conditions: overcast
Temperature: 32.0 F (0.0 C)
Windchill: 24 F (-4 C):1
Dew Point: 14.0 F (-10.0 C)
Relative Humidity: 46%
Pressure (altimeter): 30.03 in. Hg (1016 hPa)
ob: KCOD 242256Z AUTO 04008KT 10SM OVC075 00/M10 A3003 RMK AO2 SLP204 T00001100 FZRANO
cycle: 23

Station Type Date Time Source
KCOD TAF 2020/02/24 18:30 UTC NOAA

TAF KCOD 241727Z 2418/2518 29012G22KT P6SM SCT050 BKN080
FM250100 35012G18KT P6SM VCSH SCT025 BKN040
FM250600 36010KT P6SM SCT030 BKN045
FM251100 04008KT P6SM FEW040 SCT060

Example: see airport list